createdAt,value
2018-11-10T00:00:20.349Z,110.90
2018-11-10T00:02:49.857Z,117.30
2018-11-10T00:05:20.577Z,101.63
2018-11-10T00:07:49.264Z,113.73
2018-11-10T00:10:19.754Z,113.90
2018-11-10T00:12:48.951Z,106.77
2018-11-10T00:15:17.625Z,103.87
2018-11-10T00:17:46.511Z,115.87
2018-11-10T00:20:15.172Z,113.77
2018-11-10T00:22:51.803Z,110.47
2018-11-10T00:25:20.464Z,111.63
2018-11-10T00:27:49.365Z,107.50
2018-11-10T00:30:23.280Z,115.17
2018-11-10T00:32:52.458Z,97.03
2018-11-10T00:35:21.095Z,120.33
2018-11-10T00:37:51.897Z,116.17
2018-11-10T00:40:21.904Z,114.30
2018-11-10T00:42:51.628Z,111.70
2018-11-10T00:45:20.287Z,109.80
2018-11-10T00:47:48.951Z,110.83
2018-11-10T00:50:18.460Z,113.97
2018-11-10T00:52:47.138Z,107.03
2018-11-10T00:55:15.800Z,109.10
2018-11-10T00:57:44.447Z,105.30
2018-11-10T01:00:13.808Z,114.00
2018-11-10T01:02:45.245Z,121.23
2018-11-10T01:05:14.913Z,111.53
2018-11-10T01:07:44.038Z,101.70
2018-11-10T01:10:13.950Z,118.20
2018-11-10T01:12:43.033Z,110.07
2018-11-10T01:15:14.667Z,113.07
2018-11-10T01:17:43.786Z,110.53
2018-11-10T01:20:12.865Z,109.87
2018-11-10T01:22:42.792Z,108.27
2018-11-10T01:25:12.182Z,111.67
2018-11-10T01:27:40.976Z,106.20
2018-11-10T01:30:12.212Z,113.20
2018-11-10T01:32:41.163Z,111.90
2018-11-10T01:35:09.892Z,107.10
2018-11-10T01:37:41.438Z,106.87
2018-11-10T01:40:11.296Z,111.73
2018-11-10T01:42:40.331Z,105.30
2018-11-10T01:45:14.829Z,114.03
2018-11-10T01:47:44.903Z,123.30
2018-11-10T01:50:14.488Z,104.63
2018-11-10T01:52:44.395Z,108.10
2018-11-10T01:55:13.228Z,106.97
2018-11-10T01:57:43.710Z,111.03
2018-11-10T02:00:15.464Z,95.40
2018-11-10T02:02:44.833Z,105.83
2018-11-10T02:05:15.688Z,109.70
2018-11-10T02:07:45.191Z,109.60
2018-11-10T02:10:15.483Z,118.17
2018-11-10T02:12:44.165Z,107.77
2018-11-10T02:15:18.476Z,113.93
2018-11-10T02:17:47.276Z,104.80
2018-11-10T02:20:16.711Z,108.80
2018-11-10T02:22:45.813Z,110.20
2018-11-10T02:25:15.033Z,98.97
2018-11-10T02:27:43.739Z,107.47
2018-11-10T02:30:15.079Z,96.57
2018-11-10T02:32:44.241Z,112.07
2018-11-10T02:35:13.713Z,104.83
2018-11-10T02:37:42.404Z,108.90
2018-11-10T02:40:14.826Z,99.70
2018-11-10T02:42:45.639Z,108.17
2018-11-10T02:45:15.380Z,116.43
2018-11-10T02:47:46.063Z,103.53
2018-11-10T02:50:14.707Z,105.73
2018-11-10T02:52:43.374Z,106.87
2018-11-10T02:55:12.273Z,108.90
2018-11-10T02:57:41.344Z,104.03
2018-11-10T03:00:11.257Z,100.03
2018-11-10T03:02:40.702Z,98.77
2018-11-10T03:05:09.985Z,97.50
2018-11-10T03:07:39.031Z,92.90
2018-11-10T03:10:08.820Z,104.10
2018-11-10T03:12:38.477Z,90.17
2018-11-10T03:15:08.148Z,95.43
2018-11-10T03:17:37.191Z,96.93
2018-11-10T03:20:07.980Z,96.43
2018-11-10T03:22:37.975Z,103.53
2018-11-10T03:25:07.940Z,95.13
2018-11-10T03:27:38.329Z,99.13
2018-11-10T03:30:07.419Z,100.97
2018-11-10T03:32:37.070Z,94.27
2018-11-10T03:35:06.715Z,91.60
2018-11-10T03:37:37.241Z,88.63
2018-11-10T03:40:08.372Z,98.10
2018-11-10T03:42:37.509Z,90.27
2018-11-10T03:45:07.708Z,84.50
2018-11-10T03:47:37.447Z,82.53
2018-11-10T03:50:06.405Z,94.27
2018-11-10T03:52:35.686Z,91.00
2018-11-10T03:55:08.458Z,89.00
2018-11-10T03:57:37.194Z,98.83
2018-11-10T04:00:07.264Z,91.03
2018-11-10T04:02:35.894Z,89.13
2018-11-10T04:05:04.542Z,92.50
2018-11-10T04:07:34.584Z,93.80
2018-11-10T04:10:05.404Z,87.97
2018-11-10T04:12:34.256Z,92.33
2018-11-10T04:15:03.136Z,84.63
2018-11-10T04:17:31.810Z,100.37
2018-11-10T04:20:03.488Z,90.17
2018-11-10T04:22:34.710Z,93.93
2018-11-10T04:25:04.806Z,93.67
2018-11-10T04:27:34.264Z,94.63
2018-11-10T04:30:03.962Z,95.27
2018-11-10T04:32:33.020Z,84.47
2018-11-10T04:35:01.667Z,94.87
2018-11-10T04:37:32.125Z,91.00
2018-11-10T04:40:00.768Z,95.57
2018-11-10T04:42:31.124Z,92.00
2018-11-10T04:45:01.274Z,90.53
2018-11-10T04:47:30.012Z,93.63
2018-11-10T04:50:01.031Z,87.23
2018-11-10T04:52:29.732Z,90.47
2018-11-10T04:54:58.452Z,95.70
2018-11-10T04:57:27.122Z,88.53
2018-11-10T04:59:58.167Z,86.33
2018-11-10T05:02:27.606Z,94.67
2018-11-10T05:04:58.146Z,92.87
2018-11-10T05:07:26.817Z,95.27
2018-11-10T05:09:55.521Z,88.80
2018-11-10T05:12:24.188Z,91.60
2018-11-10T05:14:55.931Z,86.20
2018-11-10T05:17:25.592Z,87.53
2018-11-10T05:19:54.530Z,96.40
2018-11-10T05:22:24.112Z,96.97
2018-11-10T05:24:52.724Z,92.70
2018-11-10T05:27:22.194Z,84.90
2018-11-10T05:29:50.848Z,89.23
2018-11-10T05:32:21.503Z,84.90
2018-11-10T05:34:50.157Z,84.20
2018-11-10T05:37:18.796Z,87.00
2018-11-10T05:39:47.492Z,96.40
2018-11-10T05:42:16.144Z,91.37
2018-11-10T05:44:46.948Z,94.57
2018-11-10T05:47:15.903Z,92.57
2018-11-10T05:49:44.568Z,101.27
2018-11-10T05:52:14.913Z,92.20
2018-11-10T05:54:43.529Z,81.43
2018-11-10T05:57:12.456Z,89.20
2018-11-10T05:59:41.829Z,93.77
2018-11-10T06:02:10.472Z,88.07
2018-11-10T06:04:39.179Z,89.97
2018-11-10T06:07:10.376Z,90.83
2018-11-10T06:09:39.085Z,92.33
2018-11-10T06:12:08.669Z,94.93
2018-11-10T06:14:37.419Z,89.93
2018-11-10T06:17:06.568Z,94.63
2018-11-10T06:19:35.248Z,96.07
2018-11-10T06:22:05.921Z,94.43
2018-11-10T06:24:34.628Z,90.20
2018-11-10T06:27:04.037Z,94.07
2018-11-10T06:29:32.978Z,93.83
2018-11-10T06:32:02.364Z,97.43
2018-11-10T06:34:31.041Z,82.73
2018-11-10T06:36:59.764Z,90.73
2018-11-10T06:39:30.305Z,88.20
2018-11-10T06:42:00.328Z,92.10
2018-11-10T06:44:29.145Z,90.20
2018-11-10T06:46:58.134Z,97.93
2018-11-10T06:49:26.776Z,90.43
2018-11-10T06:51:59.960Z,94.40
2018-11-10T06:54:28.674Z,93.57
2018-11-10T06:56:57.330Z,90.93
2018-11-10T06:59:29.354Z,94.60
2018-11-10T07:01:58.020Z,88.20
2018-11-10T07:04:26.702Z,91.50
2018-11-10T07:06:55.845Z,100.67
2018-11-10T07:09:25.956Z,87.90
2018-11-10T07:11:56.246Z,95.40
2018-11-10T07:14:24.872Z,89.10
2018-11-10T07:16:53.550Z,98.80
2018-11-10T07:19:24.143Z,100.57
2018-11-10T07:21:53.774Z,77.87
2018-11-10T07:24:22.539Z,93.40
2018-11-10T07:26:51.334Z,102.90
2018-11-10T07:29:21.331Z,88.93
2018-11-10T07:31:50.021Z,93.03
2018-11-10T07:34:19.569Z,90.57
2018-11-10T07:36:48.328Z,92.47
2018-11-10T07:39:17.531Z,90.87
2018-11-10T07:41:46.249Z,85.17
2018-11-10T07:44:16.932Z,83.07
2018-11-10T07:46:46.388Z,85.97
2018-11-10T07:49:19.904Z,85.93
2018-11-10T07:51:49.730Z,82.67
2018-11-10T07:54:18.528Z,86.97
2018-11-10T07:56:47.253Z,86.73
2018-11-10T07:59:20.103Z,79.43
2018-11-10T08:01:49.047Z,88.43
2018-11-10T08:04:18.373Z,81.70
2018-11-10T08:06:52.692Z,79.53
2018-11-10T08:09:22.124Z,87.83
2018-11-10T08:11:50.821Z,84.13
2018-11-10T08:14:20.761Z,79.27
2018-11-10T08:16:49.972Z,79.83
2018-11-10T08:19:19.983Z,83.03
2018-11-10T08:21:52.785Z,75.80
2018-11-10T08:24:24.137Z,73.23
2018-11-10T08:26:53.033Z,79.43
2018-11-10T08:29:21.721Z,77.37
2018-11-10T08:31:50.453Z,69.77
2018-11-10T08:34:19.173Z,77.30
2018-11-10T08:36:51.276Z,79.60
2018-11-10T08:39:19.976Z,78.70
2018-11-10T08:41:52.352Z,75.17
2018-11-10T08:44:21.241Z,75.30
2018-11-10T08:46:50.052Z,66.43
2018-11-10T08:49:19.789Z,68.70
2018-11-10T08:51:49.281Z,71.47
2018-11-10T08:54:18.005Z,69.20
2018-11-10T08:56:48.309Z,68.70
2018-11-10T08:59:17.257Z,69.03
2018-11-10T09:01:48.617Z,69.87
2018-11-10T09:04:17.379Z,68.30
2018-11-10T09:06:47.570Z,71.10
2018-11-10T09:09:16.426Z,65.73
2018-11-10T09:11:45.085Z,67.17
2018-11-10T09:14:17.655Z,69.23
2018-11-10T09:16:46.299Z,66.27
2018-11-10T09:19:15.329Z,62.97
2018-11-10T09:21:45.420Z,60.20
2018-11-10T09:24:14.395Z,65.80
2018-11-10T09:26:43.155Z,65.10
2018-11-10T09:29:11.939Z,64.10
2018-11-10T09:31:41.639Z,58.97
2018-11-10T09:34:10.393Z,61.37
2018-11-10T09:36:40.937Z,61.83
2018-11-10T09:39:09.835Z,65.00
2018-11-10T09:41:40.216Z,59.97
2018-11-10T09:44:09.006Z,62.27
2018-11-10T09:46:37.739Z,60.83
2018-11-10T09:49:06.668Z,57.00
2018-11-10T09:51:35.451Z,58.00
2018-11-10T09:54:04.483Z,57.13
2018-11-10T09:56:34.931Z,62.03
2018-11-10T09:59:05.117Z,57.10
2018-11-10T10:01:34.925Z,55.57
2018-11-10T10:04:04.346Z,58.30
2018-11-10T10:06:39.410Z,56.17
2018-11-10T10:09:09.678Z,58.17
2018-11-10T10:11:38.863Z,52.63
2018-11-10T10:14:08.478Z,60.27
2018-11-10T10:16:37.196Z,54.60
2018-11-10T10:19:09.002Z,51.83
2018-11-10T10:21:38.147Z,53.20
2018-11-10T10:24:07.689Z,48.37
2018-11-10T10:26:36.348Z,51.07
2018-11-10T10:29:08.812Z,53.67
2018-11-10T10:31:37.500Z,54.43
2018-11-10T10:34:07.413Z,55.30
2018-11-10T10:36:36.680Z,47.80
2018-11-10T10:39:07.454Z,52.17
2018-11-10T10:41:36.406Z,57.03
2018-11-10T10:44:06.139Z,52.33
2018-11-10T10:46:37.138Z,45.57
2018-11-10T10:49:07.211Z,49.50
2018-11-10T10:51:36.029Z,44.60
2018-11-10T10:54:04.843Z,46.63
2018-11-10T10:56:33.645Z,47.00
2018-11-10T10:59:02.226Z,47.43
2018-11-10T11:01:36.210Z,42.80
2018-11-10T11:06:13.680Z,42.23
2018-11-10T11:08:42.429Z,41.07
2018-11-10T11:11:11.180Z,47.03
2018-11-10T11:13:41.873Z,44.70
2018-11-10T11:16:11.241Z,43.13
2018-11-10T11:18:39.947Z,42.43
2018-11-10T11:21:08.601Z,40.70
2018-11-10T11:23:39.998Z,45.27
2018-11-10T11:26:08.668Z,41.83
2018-11-10T11:28:39.588Z,39.40
2018-11-10T11:31:08.384Z,40.90
2018-11-10T11:33:39.071Z,38.80
2018-11-10T11:36:08.724Z,38.20
2018-11-10T11:38:37.360Z,39.90
2018-11-10T11:41:06.467Z,40.40
2018-11-10T11:43:35.074Z,35.17
2018-11-10T11:46:06.651Z,37.37
2018-11-10T11:48:35.594Z,39.70
2018-11-10T11:51:04.355Z,42.77
2018-11-10T11:53:34.472Z,34.83
2018-11-10T11:56:03.145Z,35.17
2018-11-10T11:58:31.795Z,35.53
2018-11-10T12:01:00.488Z,38.53
2018-11-10T12:03:30.648Z,35.63
2018-11-10T12:06:00.220Z,35.90
2018-11-10T12:08:28.858Z,32.33
2018-11-10T12:10:57.587Z,35.83
2018-11-10T12:13:26.252Z,36.13
2018-11-10T12:15:57.009Z,36.97
2018-11-10T12:18:25.793Z,31.40
2018-11-10T12:20:54.661Z,34.37
2018-11-10T12:23:24.748Z,34.07
2018-11-10T12:25:54.430Z,30.50
2018-11-10T12:28:23.221Z,32.40
2018-11-10T12:30:51.919Z,35.33
2018-11-10T12:33:21.719Z,32.20
2018-11-10T12:35:52.131Z,37.13
2018-11-10T12:38:20.910Z,31.87
2018-11-10T12:40:49.601Z,36.20
2018-11-10T12:43:18.294Z,32.37
2018-11-10T12:45:48.032Z,39.37
2018-11-10T12:48:19.266Z,30.73
2018-11-10T12:50:48.231Z,32.83
2018-11-10T12:53:16.872Z,32.47
2018-11-10T12:55:45.541Z,31.93
2018-11-10T12:58:16.341Z,34.10
2018-11-10T13:00:45.197Z,31.33
2018-11-10T13:03:14.530Z,34.50
2018-11-10T13:05:43.190Z,31.57
2018-11-10T13:08:11.918Z,33.40
2018-11-10T13:10:40.581Z,30.63
2018-11-10T13:13:09.230Z,32.93
2018-11-10T13:15:38.030Z,31.30
2018-11-10T13:18:06.761Z,30.03
2018-11-10T13:20:35.597Z,35.20
2018-11-10T13:23:04.421Z,29.00
2018-11-10T13:25:33.149Z,32.40
2018-11-10T13:28:01.869Z,26.80
2018-11-10T13:30:33.677Z,26.00
2018-11-10T13:33:02.678Z,27.83
2018-11-10T13:35:31.412Z,24.13
2018-11-10T13:38:00.134Z,24.13
2018-11-10T13:40:28.859Z,24.00
2018-11-10T13:42:57.583Z,25.83
2018-11-10T13:45:26.242Z,26.20
2018-11-10T13:47:56.370Z,24.97
2018-11-10T13:50:25.122Z,29.33
2018-11-10T13:52:55.620Z,27.07
2018-11-10T13:55:23.991Z,31.20
2018-11-10T13:57:52.680Z,27.30
2018-11-10T14:00:21.379Z,25.97
2018-11-10T14:02:50.097Z,25.10
2018-11-10T14:05:19.992Z,26.90
2018-11-10T14:07:48.809Z,28.10
2018-11-10T14:10:20.133Z,31.67
2018-11-10T14:12:49.468Z,27.87
2018-11-10T14:15:18.105Z,30.57
2018-11-10T14:17:47.942Z,31.73
2018-11-10T14:20:17.386Z,30.30
2018-11-10T14:22:50.317Z,33.20
2018-11-10T14:25:19.320Z,31.87
2018-11-10T14:27:48.024Z,32.10
2018-11-10T14:30:19.179Z,33.47
2018-11-10T14:32:48.190Z,43.20
2018-11-10T14:35:18.847Z,47.30
2018-11-10T14:37:47.936Z,46.57
2018-11-10T14:40:17.919Z,48.00
2018-11-10T14:42:48.490Z,36.90
2018-11-10T14:45:18.551Z,37.67
2018-11-10T14:47:47.653Z,36.40
2018-11-10T14:50:17.145Z,43.50
2018-11-10T14:52:46.948Z,39.20
2018-11-10T14:55:16.980Z,36.37
2018-11-10T14:57:45.737Z,34.10
2018-11-10T15:00:18.821Z,35.93
2018-11-10T15:02:48.014Z,36.47
2018-11-10T15:05:16.664Z,39.67
2018-11-10T15:07:46.818Z,38.13
2018-11-10T15:10:17.100Z,40.03
2018-11-10T15:12:46.081Z,35.17
2018-11-10T15:15:15.879Z,34.90
2018-11-10T15:17:45.532Z,34.33
2018-11-10T15:20:16.943Z,33.43
2018-11-10T15:22:45.673Z,33.90
2018-11-10T15:25:15.750Z,35.53
2018-11-10T15:27:44.413Z,35.93
2018-11-10T15:30:16.394Z,35.67
2018-11-10T15:32:45.854Z,41.30
2018-11-10T15:35:15.832Z,44.07
2018-11-10T15:37:45.923Z,38.60
2018-11-10T15:40:16.826Z,42.20
2018-11-10T15:42:46.008Z,42.80
2018-11-10T15:45:15.697Z,42.63
2018-11-10T15:47:44.778Z,39.67
2018-11-10T15:50:14.606Z,42.67
2018-11-10T15:52:44.172Z,40.40
2018-11-10T15:55:13.595Z,38.53
2018-11-10T15:57:42.556Z,44.47
2018-11-10T16:00:14.988Z,35.83
2018-11-10T16:02:48.336Z,43.17
2018-11-10T16:05:17.383Z,35.57
2018-11-10T16:07:46.044Z,37.00
2018-11-10T16:10:14.751Z,36.63
2018-11-10T16:12:43.428Z,38.93
2018-11-10T16:15:15.277Z,39.50
2018-11-10T16:17:44.050Z,40.67
2018-11-10T16:20:17.925Z,42.63
2018-11-10T16:22:48.956Z,41.70
2018-11-10T16:25:18.221Z,44.37
2018-11-10T16:27:47.112Z,42.63
2018-11-10T16:30:17.510Z,40.97
2018-11-10T16:32:46.709Z,43.50
2018-11-10T16:35:16.884Z,44.33
2018-11-10T16:37:46.873Z,45.43
2018-11-10T16:40:17.907Z,42.23
2018-11-10T16:42:47.268Z,46.07
2018-11-10T16:45:18.766Z,43.80
2018-11-10T16:47:47.418Z,45.20
2018-11-10T16:50:17.940Z,45.30
2018-11-10T16:52:46.842Z,44.73
2018-11-10T16:55:15.707Z,44.47
2018-11-10T16:57:45.344Z,48.17
2018-11-10T17:00:17.106Z,47.37
2018-11-10T17:02:48.226Z,49.97
2018-11-10T17:05:16.952Z,47.90
2018-11-10T17:07:46.652Z,43.77
2018-11-10T17:10:16.757Z,47.70
2018-11-10T17:12:45.476Z,42.67
2018-11-10T17:15:16.630Z,45.87
2018-11-10T17:17:45.477Z,45.20
2018-11-10T17:20:15.598Z,51.30
2018-11-10T17:22:44.531Z,48.60
2018-11-10T17:25:14.048Z,49.97
2018-11-10T17:27:43.144Z,46.80
2018-11-10T17:30:20.935Z,48.13
2018-11-10T17:32:50.469Z,46.00
2018-11-10T17:35:20.324Z,47.37
2018-11-10T17:37:50.299Z,47.17
2018-11-10T17:40:20.239Z,47.43
2018-11-10T17:42:48.931Z,47.50
2018-11-10T17:45:19.160Z,47.70
2018-11-10T17:47:48.297Z,45.70
2018-11-10T17:50:17.834Z,54.23
2018-11-10T17:52:48.039Z,43.70
2018-11-10T17:55:17.431Z,48.27
2018-11-10T17:57:46.596Z,52.37
2018-11-10T18:00:15.258Z,49.80
2018-11-10T18:02:44.494Z,49.50
2018-11-10T18:05:14.757Z,52.57
2018-11-10T18:07:43.402Z,51.00
2018-11-10T18:10:13.802Z,48.17
2018-11-10T18:12:43.200Z,47.30
2018-11-10T18:15:14.665Z,52.30
2018-11-10T18:17:43.713Z,48.67
2018-11-10T18:20:13.774Z,50.07
2018-11-10T18:22:42.762Z,52.60
2018-11-10T18:25:12.950Z,48.30
2018-11-10T18:27:41.622Z,48.53
2018-11-10T18:30:12.962Z,49.53
2018-11-10T18:32:41.808Z,50.80
2018-11-10T18:35:11.182Z,48.47
2018-11-10T18:37:41.184Z,48.63
2018-11-10T18:40:09.998Z,51.80
2018-11-10T18:42:45.268Z,50.50
2018-11-10T18:45:14.010Z,45.73
2018-11-10T18:47:43.566Z,49.60
2018-11-10T18:50:17.729Z,52.40
2018-11-10T18:52:47.681Z,49.17
2018-11-10T18:55:17.334Z,49.87
2018-11-10T18:57:46.444Z,51.60
2018-11-10T19:00:16.331Z,48.87
2018-11-10T19:02:45.146Z,47.90
2018-11-10T19:05:15.928Z,54.50
2018-11-10T19:07:45.198Z,47.00
2018-11-10T19:10:16.866Z,50.13
2018-11-10T19:12:45.580Z,53.97
2018-11-10T19:15:21.542Z,52.20
2018-11-10T19:17:50.994Z,41.90
2018-11-10T19:20:19.824Z,49.90
2018-11-10T19:22:48.592Z,42.87
2018-11-10T19:25:23.320Z,45.57
2018-11-10T19:27:53.439Z,46.43
2018-11-10T19:30:22.198Z,51.27
2018-11-10T19:32:51.384Z,44.00
2018-11-10T19:35:20.412Z,50.23
2018-11-10T19:37:49.554Z,47.70
2018-11-10T19:40:18.274Z,45.70
2018-11-10T19:42:47.426Z,47.67
2018-11-10T19:45:16.146Z,48.90
2018-11-10T19:47:47.550Z,43.50
2018-11-10T19:50:17.186Z,49.80
2018-11-10T19:52:47.324Z,45.67
2018-11-10T19:55:17.212Z,47.87
2018-11-10T19:57:47.307Z,42.43
2018-11-10T20:00:21.090Z,47.53
2018-11-10T20:02:51.527Z,46.63
2018-11-10T20:05:20.208Z,46.90
2018-11-10T20:07:50.343Z,50.80
2018-11-10T20:10:19.276Z,48.10
2018-11-10T20:12:48.238Z,45.60
2018-11-10T20:15:17.691Z,44.30
2018-11-10T20:17:47.788Z,49.23
2018-11-10T20:20:17.799Z,42.67
2018-11-10T20:22:46.486Z,44.97
2018-11-10T20:25:20.834Z,44.53
2018-11-10T20:27:50.231Z,44.63
2018-11-10T20:30:20.117Z,44.43
2018-11-10T20:32:54.034Z,40.50
2018-11-10T20:35:22.667Z,41.73
2018-11-10T20:37:52.622Z,44.30
2018-11-10T20:40:21.286Z,42.40
2018-11-10T20:42:51.882Z,46.87
2018-11-10T20:45:21.608Z,44.60
2018-11-10T20:47:51.321Z,45.07
2018-11-10T20:50:20.115Z,39.10
2018-11-10T20:52:49.946Z,43.10
2018-11-10T20:55:19.429Z,37.77
2018-11-10T20:57:48.197Z,43.23
2018-11-10T21:00:20.460Z,39.63
2018-11-10T21:02:48.963Z,41.17
2018-11-10T21:05:18.615Z,43.90
2018-11-10T21:07:47.313Z,39.03
2018-11-10T21:10:18.871Z,41.53
2018-11-10T21:12:48.394Z,41.47
2018-11-10T21:15:17.692Z,40.50
2018-11-10T21:17:46.543Z,38.97
2018-11-10T21:20:17.503Z,38.60
2018-11-10T21:22:46.169Z,37.10
2018-11-10T21:25:16.280Z,40.53
2018-11-10T21:27:47.336Z,42.33
2018-11-10T21:30:17.388Z,39.10
2018-11-10T21:32:49.493Z,38.57
2018-11-10T21:35:22.761Z,40.00
2018-11-10T21:37:52.827Z,40.20
2018-11-10T21:40:21.916Z,40.43
2018-11-10T21:42:51.787Z,45.77
2018-11-10T21:45:20.445Z,39.30
2018-11-10T21:47:51.116Z,35.50
2018-11-10T21:50:21.153Z,41.70
2018-11-10T21:52:50.534Z,36.13
2018-11-10T21:55:20.084Z,37.53
2018-11-10T21:57:49.895Z,40.07
2018-11-10T22:00:20.187Z,40.13
2018-11-10T22:02:53.517Z,41.20
2018-11-10T22:05:22.298Z,40.00
2018-11-10T22:07:51.031Z,40.57
2018-11-10T22:10:20.391Z,35.57
2018-11-10T22:12:51.113Z,39.20
2018-11-10T22:15:21.234Z,36.60
2018-11-10T22:17:50.208Z,42.53
2018-11-10T22:20:21.618Z,37.23
2018-11-10T22:22:50.484Z,38.77
2018-11-10T22:25:19.212Z,35.73
2018-11-10T22:27:50.173Z,39.17
2018-11-10T22:30:19.888Z,35.73
2018-11-10T22:32:48.983Z,41.33
2018-11-10T22:35:17.857Z,34.63
2018-11-10T22:37:46.794Z,37.77
2018-11-10T22:40:17.877Z,38.57
2018-11-10T22:42:46.781Z,35.53
2018-11-10T22:45:16.749Z,40.43
2018-11-10T22:47:45.486Z,37.47
2018-11-10T22:50:15.769Z,34.27
2018-11-10T22:52:44.727Z,36.87
2018-11-10T22:55:15.802Z,36.33
2018-11-10T22:57:44.410Z,36.17
2018-11-10T23:00:30.877Z,42.53
2018-11-10T23:03:00.691Z,39.00
2018-11-10T23:05:30.168Z,33.43
2018-11-10T23:07:59.768Z,35.13
2018-11-10T23:10:28.488Z,36.73
2018-11-10T23:12:58.051Z,33.60
2018-11-10T23:15:26.925Z,36.80
2018-11-10T23:17:56.937Z,36.00
2018-11-10T23:20:25.615Z,35.77
2018-11-10T23:22:54.347Z,35.73
2018-11-10T23:25:23.080Z,36.20
2018-11-10T23:27:51.835Z,38.53
2018-11-10T23:30:22.652Z,32.83
2018-11-10T23:32:51.312Z,40.07
2018-11-10T23:35:21.771Z,37.30
2018-11-10T23:37:50.598Z,36.87
2018-11-10T23:40:23.943Z,37.57
2018-11-10T23:42:52.677Z,34.23
2018-11-10T23:45:21.746Z,34.07
2018-11-10T23:47:50.533Z,34.50
2018-11-10T23:50:20.525Z,32.90
2018-11-10T23:52:49.213Z,29.13
2018-11-10T23:55:18.189Z,37.80
2018-11-10T23:57:46.980Z,35.97
